Liberty, KS

2:07 AM CDT on April 27, 2015 (GMT -0500)
Coffeyville Municipal | | Change Station
CLOSE
Current Station
Airport
Location: Coffeyville,
Elevation: 751 ft
Nearby Weather Stations

Elev 751 ft 37.09 °N, 95.57 °W | Updated 15 minutes ago

Clear
Clear
52 °F
Feels Like 52 °F
N
10
Wind Variable Wind from NE

Today
High -- | Low -- °F
--% Chance of Precip.
Yesterday
High -- | Low -- °F
Precip. -- in
6:32 AM 8:07 PM
Waxing Gibbous, 62% visible
Pressure 29.93 in
Visibility 10.0 miles
Clouds Scattered Clouds 7500 ft
Dew Point 45 °F
Humidity 77%
Rainfall 0.00 in
Snow Depth Not available.
UV 0 out of 12
Pollen 9.70 out of 12
Air Quality Not available.
Flu Activity Sporadic
METAR KCFV 270652Z AUTO 05009KT 10SM SCT075 11/07 A2993 RMK AO2 SLP134 T01110072

More Conditions Fewer Conditions

Pressure 29.93 in
Visibility 10.0 miles
Clouds Scattered Clouds 7500 ft
Dew Point 45 °F
Humidity 77%
Rainfall 0.00 in
Snow Depth Not available.
UV 0 out of 12
Pollen 9.70 out of 12
Air Quality Not available.
Flu Activity Sporadic
METAR KCFV 270652Z AUTO 05009KT 10SM SCT075 11/07 A2993 RMK AO2 SLP134 T01110072

More Conditions Fewer Conditions

10-Day Weather Forecast

Almanac

Astronomy

Apr. 27, 2015 Rise Set
Actual Time
Civil Twilight
Nautical Twilight
Astronomical Twilight
Moon
Length of Visible Light
Length of Day
Tomorrow will be .
, % of the Moon is Illuminated

Today's Extremes

State Highs State Lows

Community

WunderPhotos

Upload Photos

1,817,267 photos uploaded!

WunderBlogs® & News

Nearby

Air Quality

  Air Quality AQ Index Pollutant
Not available.

Snow Depth

Station Depth Elevation

Earthquake Activity

City Distance Mag. Time & Date
Minimum magnitude displayed is 2.5.

Coastal Water Temperatures

Place Temperature

Stations

Nearby Weather Stations

Station Location Temp. Windchill Dew Point Humidity Wind Precip. Elev Updated Type